Terminal Aerodrome Forecast
Issued by NWS

Home | Current Version | Previous Version | Graphics & Text | Print | Product List | Glossary On
Versions: 1 2 3 4 5 6 7 8 9 10 11 12 13 14 15 16 17 18 19 20 21 22
000
FTUS43 KTOP 271120
TAFMHK
TAF
KMHK 271120Z 2712/2812 13008KT P6SM SCT030 BKN150
     FM271600 17010KT P6SM SCT035
     FM271900 15010KT P6SM VCTS SCT020 BKN040CB
     FM280600 13002KT P6SM SCT030 BKN100=

USA.gov is the U.S. government's official web portal to all federal, state and local government web resources and services.